createdAt,value
2023-09-06T00:00:29.176Z,17.16
2023-09-06T00:02:58.874Z,17.19
2023-09-06T00:05:27.422Z,17.21
2023-09-06T00:07:55.416Z,17.19
2023-09-06T00:10:23.924Z,17.10
2023-09-06T00:12:53.417Z,16.95
2023-09-06T00:15:21.466Z,16.94
2023-09-06T00:17:49.414Z,16.99
2023-09-06T00:20:21.921Z,17.02
2023-09-06T00:22:56.820Z,16.97
2023-09-06T00:25:26.082Z,16.98
2023-09-06T00:27:57.660Z,16.94
2023-09-06T00:30:25.814Z,16.87
2023-09-06T00:32:54.641Z,16.83
2023-09-06T00:35:25.130Z,16.87
2023-09-06T00:37:53.278Z,16.85
2023-09-06T00:40:22.816Z,16.84
2023-09-06T00:42:52.422Z,16.85
2023-09-06T00:45:24.236Z,16.82
2023-09-06T00:47:53.222Z,16.65
2023-09-06T00:50:22.740Z,16.56
2023-09-06T00:52:53.181Z,16.62
2023-09-06T00:55:22.926Z,16.68
2023-09-06T00:57:52.140Z,16.62
2023-09-06T01:00:26.599Z,16.72
2023-09-06T01:02:55.349Z,16.73
2023-09-06T01:05:27.511Z,16.71
2023-09-06T01:07:59.685Z,16.69
2023-09-06T01:10:28.361Z,16.72
2023-09-06T01:12:57.435Z,16.69
2023-09-06T01:15:27.742Z,16.75
2023-09-06T01:18:00.550Z,16.72
2023-09-06T01:20:35.314Z,16.65
2023-09-06T01:23:12.499Z,16.55
2023-09-06T01:25:44.301Z,16.47
2023-09-06T01:28:13.111Z,16.40
2023-09-06T01:30:41.336Z,16.52
2023-09-06T01:33:09.733Z,16.55
2023-09-06T01:35:38.384Z,16.56
2023-09-06T01:38:06.405Z,16.53
2023-09-06T01:40:34.326Z,16.46
2023-09-06T01:43:04.333Z,16.26
2023-09-06T01:45:33.025Z,16.14
2023-09-06T01:48:04.192Z,16.12
2023-09-06T01:50:32.573Z,16.06
2023-09-06T01:53:00.591Z,15.99
2023-09-06T01:55:29.217Z,15.79
2023-09-06T01:57:57.848Z,15.46
2023-09-06T02:00:29.856Z,15.29
2023-09-06T02:02:58.276Z,15.31
2023-09-06T02:05:26.784Z,15.35
2023-09-06T02:07:55.037Z,15.46
2023-09-06T02:10:24.562Z,15.70
2023-09-06T02:12:53.616Z,15.83
2023-09-06T02:15:23.207Z,15.90
2023-09-06T02:17:53.773Z,15.88
2023-09-06T02:20:22.561Z,16.02
2023-09-06T02:22:53.340Z,16.09
2023-09-06T02:25:26.206Z,16.13
2023-09-06T02:27:57.216Z,15.92
2023-09-06T02:30:25.540Z,15.80
2023-09-06T02:32:57.675Z,15.66
2023-09-06T02:35:25.835Z,15.77
2023-09-06T02:37:53.962Z,15.74
2023-09-06T02:40:22.559Z,15.77
2023-09-06T02:42:52.466Z,15.79
2023-09-06T02:45:23.649Z,15.82
2023-09-06T02:47:54.220Z,15.78
2023-09-06T02:50:25.176Z,15.71
2023-09-06T02:52:57.689Z,15.74
2023-09-06T02:55:26.221Z,15.72
2023-09-06T02:57:58.292Z,15.48
2023-09-06T03:00:30.889Z,15.57
2023-09-06T03:03:07.054Z,15.71
2023-09-06T03:05:43.181Z,15.73
2023-09-06T03:08:16.299Z,15.77
2023-09-06T03:10:46.415Z,15.75
2023-09-06T03:13:17.784Z,15.81
2023-09-06T03:15:47.168Z,15.84
2023-09-06T03:18:16.120Z,15.86
2023-09-06T03:20:45.703Z,15.92
2023-09-06T03:23:25.864Z,16.01
2023-09-06T03:25:59.650Z,16.05
2023-09-06T03:28:38.701Z,15.97
2023-09-06T03:31:10.885Z,15.92
2023-09-06T03:33:40.556Z,15.89
2023-09-06T03:36:11.186Z,15.77
2023-09-06T03:38:40.148Z,15.75
2023-09-06T03:41:09.418Z,15.72
2023-09-06T03:43:38.604Z,15.80
2023-09-06T03:46:11.300Z,15.76
2023-09-06T03:48:40.064Z,15.81
2023-09-06T03:51:09.596Z,15.76
2023-09-06T03:53:39.517Z,15.74
2023-09-06T03:56:11.794Z,15.84
2023-09-06T03:59:01.814Z,15.76
2023-09-06T04:01:32.425Z,15.75
2023-09-06T04:04:02.315Z,15.76
2023-09-06T04:06:30.790Z,15.71
2023-09-06T04:09:00.457Z,15.67
2023-09-06T04:11:28.939Z,15.70
2023-09-06T04:13:57.845Z,15.69
2023-09-06T04:16:32.409Z,15.69
2023-09-06T04:19:02.287Z,15.74
2023-09-06T04:21:30.998Z,15.73
2023-09-06T04:24:00.831Z,15.59
2023-09-06T04:26:29.035Z,15.62
2023-09-06T04:29:00.895Z,15.55
2023-09-06T04:31:29.084Z,15.56
2023-09-06T04:33:57.962Z,15.53
2023-09-06T04:36:30.778Z,15.52
2023-09-06T04:39:09.179Z,15.42
2023-09-06T04:41:39.766Z,15.42
2023-09-06T04:44:11.553Z,15.48
2023-09-06T04:46:41.231Z,15.51
2023-09-06T04:49:11.633Z,15.54
2023-09-06T04:51:40.429Z,15.47
2023-09-06T04:54:11.302Z,15.39
2023-09-06T04:56:42.114Z,15.32
2023-09-06T04:59:10.872Z,15.31
2023-09-06T05:01:39.138Z,15.39
2023-09-06T05:04:07.656Z,15.50
2023-09-06T05:06:38.005Z,15.65
2023-09-06T05:09:06.727Z,15.78
2023-09-06T05:11:36.243Z,15.72
2023-09-06T05:14:04.617Z,15.67
2023-09-06T05:16:33.287Z,15.68
2023-09-06T05:19:02.700Z,15.77
2023-09-06T05:21:37.689Z,15.89
2023-09-06T05:24:07.127Z,16.08
2023-09-06T05:26:37.502Z,16.25
2023-09-06T05:29:06.541Z,16.39
2023-09-06T05:31:37.477Z,16.48
2023-09-06T05:34:06.155Z,16.68
2023-09-06T05:36:34.653Z,16.89
2023-09-06T05:39:07.465Z,17.26
2023-09-06T05:41:37.576Z,17.08
2023-09-06T05:44:08.795Z,16.97
2023-09-06T05:46:38.021Z,16.98
2023-09-06T05:49:10.069Z,17.05
2023-09-06T05:51:42.302Z,17.45
2023-09-06T05:54:11.923Z,17.95
2023-09-06T05:56:43.786Z,18.20
2023-09-06T05:59:15.644Z,18.69
2023-09-06T06:01:45.103Z,18.84
2023-09-06T06:04:15.395Z,18.83
2023-09-06T06:06:46.231Z,19.24
2023-09-06T06:09:16.609Z,19.11
2023-09-06T06:11:46.589Z,19.21
2023-09-06T06:14:15.150Z,19.56
2023-09-06T06:16:46.955Z,19.60
2023-09-06T06:19:16.514Z,19.90
2023-09-06T06:21:45.526Z,19.74
2023-09-06T06:24:15.186Z,19.55
2023-09-06T06:26:44.208Z,19.80
2023-09-06T06:29:15.935Z,20.01
2023-09-06T06:31:46.204Z,19.81
2023-09-06T06:34:15.836Z,19.89
2023-09-06T06:36:44.484Z,19.95
2023-09-06T06:39:16.100Z,20.04
2023-09-06T06:41:45.518Z,20.12
2023-09-06T06:44:15.583Z,20.25
2023-09-06T06:46:44.223Z,20.33
2023-09-06T06:49:12.971Z,20.46
2023-09-06T06:51:43.476Z,20.68
2023-09-06T06:54:16.105Z,20.68
2023-09-06T06:56:45.046Z,20.79
2023-09-06T06:59:12.969Z,20.81
2023-09-06T07:01:43.026Z,20.72
2023-09-06T07:04:11.047Z,21.05
2023-09-06T07:06:39.002Z,21.06
2023-09-06T07:09:07.507Z,21.21
2023-09-06T07:11:37.023Z,21.34
2023-09-06T07:14:06.139Z,21.52
2023-09-06T07:16:35.574Z,21.65
2023-09-06T07:19:09.833Z,21.74
2023-09-06T07:21:41.494Z,21.86
2023-09-06T07:24:14.616Z,22.03
2023-09-06T07:26:43.764Z,22.49
2023-09-06T07:29:13.035Z,22.55
2023-09-06T07:31:41.228Z,23.03
2023-09-06T07:34:10.948Z,23.55
2023-09-06T07:36:39.797Z,23.84
2023-09-06T07:39:10.152Z,24.26
2023-09-06T07:41:42.030Z,24.22
2023-09-06T07:44:14.763Z,24.41
2023-09-06T07:46:45.553Z,24.48
2023-09-06T07:49:18.862Z,24.20
2023-09-06T07:51:48.286Z,25.01
2023-09-06T07:54:17.677Z,25.21
2023-09-06T07:56:48.809Z,24.65
2023-09-06T07:59:23.742Z,24.68
2023-09-06T08:01:52.689Z,24.72
2023-09-06T08:04:22.952Z,25.28
2023-09-06T08:06:51.538Z,25.21
2023-09-06T08:09:21.250Z,25.49
2023-09-06T08:11:50.533Z,25.72
2023-09-06T08:14:18.900Z,25.60
2023-09-06T08:16:47.475Z,25.19
2023-09-06T08:19:15.942Z,25.01
2023-09-06T08:21:45.769Z,25.32
2023-09-06T08:24:18.996Z,25.27
2023-09-06T08:26:50.728Z,24.92
2023-09-06T08:29:19.489Z,25.08
2023-09-06T08:31:47.966Z,25.09
2023-09-06T08:34:19.067Z,24.95
2023-09-06T08:36:48.913Z,24.95
2023-09-06T08:39:17.364Z,25.09
2023-09-06T08:41:49.002Z,25.07
2023-09-06T08:44:21.816Z,25.22
2023-09-06T08:46:53.660Z,25.14
2023-09-06T08:49:23.292Z,25.19
2023-09-06T08:51:53.428Z,25.44
2023-09-06T08:54:21.958Z,25.15
2023-09-06T08:56:51.220Z,25.15
2023-09-06T08:59:20.748Z,25.16
2023-09-06T09:01:49.355Z,25.68
2023-09-06T09:04:19.988Z,26.05
2023-09-06T09:06:48.943Z,25.71
2023-09-06T09:09:20.117Z,25.79
2023-09-06T09:11:52.946Z,25.56
2023-09-06T09:14:22.748Z,25.78
2023-09-06T09:16:58.627Z,25.82
2023-09-06T09:19:28.307Z,25.74
2023-09-06T09:21:58.082Z,25.68
2023-09-06T09:24:30.326Z,25.80
2023-09-06T09:26:59.260Z,25.84
2023-09-06T09:29:28.284Z,25.71
2023-09-06T09:32:04.190Z,25.57
2023-09-06T09:34:34.256Z,25.76
2023-09-06T09:37:04.287Z,25.79
2023-09-06T09:39:34.006Z,26.10
2023-09-06T09:42:02.615Z,26.74
2023-09-06T09:44:31.771Z,26.99
2023-09-06T09:47:22.889Z,27.04
2023-09-06T09:50:00.189Z,26.93
2023-09-06T09:52:32.743Z,26.97
2023-09-06T09:55:06.301Z,27.46
2023-09-06T09:57:37.962Z,27.78
2023-09-06T10:00:10.820Z,28.51
2023-09-06T10:02:43.160Z,29.04
2023-09-06T10:05:14.383Z,28.93
2023-09-06T10:07:49.959Z,29.30
2023-09-06T10:10:24.574Z,30.02
2023-09-06T10:12:54.521Z,30.71
2023-09-06T10:15:25.708Z,31.62
2023-09-06T10:17:57.365Z,31.89
2023-09-06T10:20:28.850Z,32.73
2023-09-06T10:23:01.476Z,32.62
2023-09-06T10:25:32.232Z,33.03
2023-09-06T10:28:01.731Z,34.38
2023-09-06T10:30:46.455Z,35.10
2023-09-06T10:33:50.487Z,33.96
2023-09-06T10:36:23.587Z,32.85
2023-09-06T10:39:23.844Z,33.33
2023-09-06T10:42:18.705Z,33.77
2023-09-06T10:45:10.978Z,34.12
2023-09-06T10:47:42.767Z,33.77
2023-09-06T10:50:22.318Z,33.90
2023-09-06T10:52:55.345Z,33.47
2023-09-06T10:55:26.237Z,33.35
2023-09-06T10:58:05.643Z,34.10
2023-09-06T11:00:35.719Z,35.55
2023-09-06T11:03:23.036Z,34.61
2023-09-06T11:06:02.107Z,35.78
2023-09-06T11:08:32.680Z,36.40
2023-09-06T11:11:03.201Z,37.28
2023-09-06T11:13:34.617Z,37.77
2023-09-06T11:16:09.432Z,38.03
2023-09-06T11:18:49.984Z,38.86
2023-09-06T11:21:21.260Z,37.91
2023-09-06T11:23:54.048Z,36.57
2023-09-06T11:26:23.450Z,37.66
2023-09-06T11:29:04.888Z,37.80
2023-09-06T11:31:34.856Z,37.78
2023-09-06T11:34:10.073Z,37.46
2023-09-06T11:36:39.315Z,36.95
2023-09-06T11:39:17.086Z,36.46
2023-09-06T11:41:46.222Z,35.53
2023-09-06T11:44:20.529Z,35.98
2023-09-06T11:46:50.902Z,36.06
2023-09-06T11:49:22.824Z,37.61
2023-09-06T11:51:51.302Z,38.05
2023-09-06T11:54:25.733Z,37.26
2023-09-06T11:56:55.352Z,36.36
2023-09-06T11:59:26.173Z,38.04
2023-09-06T12:02:00.461Z,36.54
2023-09-06T12:04:31.123Z,37.12
2023-09-06T12:07:02.060Z,38.69
2023-09-06T12:09:32.300Z,38.65
2023-09-06T12:12:02.269Z,38.22
2023-09-06T12:14:32.732Z,37.89
2023-09-06T12:17:04.342Z,37.58
2023-09-06T12:19:36.281Z,38.75
2023-09-06T12:22:06.584Z,38.37
2023-09-06T12:24:37.246Z,38.66
2023-09-06T12:27:09.192Z,40.76
2023-09-06T12:29:39.354Z,39.78
2023-09-06T12:32:11.468Z,37.85
2023-09-06T12:34:39.396Z,37.14
2023-09-06T12:37:07.866Z,37.45
2023-09-06T12:39:36.101Z,36.45
2023-09-06T12:42:10.301Z,36.32
2023-09-06T12:44:42.648Z,36.39
2023-09-06T12:47:11.026Z,38.20
2023-09-06T12:49:39.199Z,39.04
2023-09-06T12:52:07.909Z,38.94
2023-09-06T12:54:35.896Z,38.53
2023-09-06T12:57:04.912Z,38.26
2023-09-06T12:59:32.924Z,36.94
2023-09-06T13:02:03.113Z,35.28
2023-09-06T13:04:31.817Z,36.19
2023-09-06T13:07:03.414Z,37.78
2023-09-06T13:09:32.132Z,37.70
2023-09-06T13:12:02.390Z,37.14
2023-09-06T13:14:31.110Z,36.69
2023-09-06T13:16:59.771Z,38.14
2023-09-06T13:19:30.151Z,38.02
2023-09-06T13:21:58.654Z,38.84
2023-09-06T13:24:28.867Z,38.97
2023-09-06T13:26:58.181Z,38.69
2023-09-06T13:29:26.924Z,39.24
2023-09-06T13:31:58.067Z,39.65
2023-09-06T13:34:26.717Z,39.40
2023-09-06T13:36:56.331Z,40.63
2023-09-06T13:39:24.754Z,40.65
2023-09-06T13:41:53.169Z,41.86
2023-09-06T13:44:25.315Z,42.01
2023-09-06T13:46:53.775Z,41.08
2023-09-06T13:49:23.093Z,39.24
2023-09-06T13:51:51.556Z,39.07
2023-09-06T13:54:21.333Z,39.78
2023-09-06T13:56:51.362Z,41.05
2023-09-06T13:59:19.977Z,42.06
2023-09-06T14:01:48.048Z,40.03
2023-09-06T14:04:17.340Z,39.32
2023-09-06T14:06:45.949Z,38.73
2023-09-06T14:09:14.776Z,39.05
2023-09-06T14:11:44.446Z,41.53
2023-09-06T14:14:12.612Z,40.93
2023-09-06T14:16:41.242Z,42.85
2023-09-06T14:19:09.098Z,41.02
2023-09-06T14:21:39.642Z,39.11
2023-09-06T14:24:14.629Z,39.26
2023-09-06T14:26:45.174Z,40.15
2023-09-06T14:29:14.220Z,39.27
2023-09-06T14:31:42.690Z,40.25
2023-09-06T14:34:10.969Z,41.52
2023-09-06T14:36:39.239Z,41.47
2023-09-06T14:39:09.576Z,39.63
2023-09-06T14:41:37.958Z,40.79
2023-09-06T14:44:08.141Z,40.87
2023-09-06T14:46:37.302Z,40.66
2023-09-06T14:49:07.294Z,40.76
2023-09-06T14:51:35.905Z,40.44
2023-09-06T14:54:04.285Z,38.59
2023-09-06T14:56:37.124Z,39.81
2023-09-06T14:59:10.201Z,39.19
2023-09-06T15:01:39.944Z,39.36
2023-09-06T15:04:11.188Z,40.46
2023-09-06T15:06:57.941Z,40.64
2023-09-06T15:09:29.772Z,39.64
2023-09-06T15:11:59.835Z,39.74
2023-09-06T15:14:31.589Z,39.79
2023-09-06T15:17:00.135Z,39.78
2023-09-06T15:19:29.742Z,38.78
2023-09-06T15:21:58.177Z,38.13
2023-09-06T15:24:26.527Z,37.51
2023-09-06T15:26:56.519Z,37.81
2023-09-06T15:29:26.551Z,37.50
2023-09-06T15:31:58.344Z,38.56
2023-09-06T15:34:28.500Z,37.15
2023-09-06T15:36:57.594Z,36.76
2023-09-06T15:39:26.050Z,36.69
2023-09-06T15:41:54.280Z,36.67
2023-09-06T15:44:22.838Z,35.81
2023-09-06T15:46:56.766Z,35.60
2023-09-06T15:49:26.044Z,35.51
2023-09-06T15:51:54.517Z,35.35
2023-09-06T15:54:22.868Z,36.12
2023-09-06T15:56:53.178Z,35.57
2023-09-06T15:59:21.428Z,35.24
2023-09-06T16:01:49.998Z,35.11
2023-09-06T16:04:18.473Z,34.85
2023-09-06T16:06:49.656Z,35.40
2023-09-06T16:09:18.324Z,34.81
2023-09-06T16:11:46.815Z,34.73
2023-09-06T16:14:15.341Z,35.87
2023-09-06T16:16:47.416Z,35.85
2023-09-06T16:19:16.193Z,35.13
2023-09-06T16:21:44.555Z,34.85
2023-09-06T16:24:16.203Z,34.96
2023-09-06T16:26:45.369Z,34.45
2023-09-06T16:29:17.932Z,34.29
2023-09-06T16:31:46.045Z,34.25
2023-09-06T16:34:14.345Z,34.66
2023-09-06T16:36:42.960Z,33.86
2023-09-06T16:39:11.168Z,33.72
2023-09-06T16:41:40.971Z,33.14
2023-09-06T16:44:09.094Z,33.01
2023-09-06T16:46:37.745Z,32.75
2023-09-06T16:49:07.423Z,33.18
2023-09-06T16:51:36.064Z,32.85
2023-09-06T16:54:08.222Z,32.80
2023-09-06T16:56:38.634Z,32.56
2023-09-06T16:59:10.085Z,32.45
2023-09-06T17:01:40.240Z,32.22
2023-09-06T17:04:10.059Z,31.96
2023-09-06T17:06:38.341Z,31.65
2023-09-06T17:09:10.508Z,31.78
2023-09-06T17:11:42.655Z,31.96
2023-09-06T17:14:14.280Z,31.84
2023-09-06T17:16:43.020Z,31.84
2023-09-06T17:19:12.083Z,31.41
2023-09-06T17:21:41.550Z,31.16
2023-09-06T17:24:11.150Z,30.53
2023-09-06T17:26:42.231Z,30.11
2023-09-06T17:29:15.722Z,29.80
2023-09-06T17:31:44.397Z,29.53
2023-09-06T17:34:13.673Z,29.13
2023-09-06T17:36:41.730Z,28.75
2023-09-06T17:39:13.614Z,28.58
2023-09-06T17:41:42.094Z,28.36
2023-09-06T17:44:16.008Z,28.18
2023-09-06T17:46:44.468Z,27.92
2023-09-06T17:49:14.549Z,27.58
2023-09-06T17:51:46.081Z,27.32
2023-09-06T17:54:16.013Z,26.99
2023-09-06T17:56:50.892Z,26.76
2023-09-06T17:59:22.415Z,26.45
2023-09-06T18:01:53.498Z,26.27
2023-09-06T18:04:24.253Z,25.99
2023-09-06T18:06:54.996Z,25.78
2023-09-06T18:09:27.276Z,25.68
2023-09-06T18:11:56.054Z,25.62
2023-09-06T18:14:26.585Z,25.50
2023-09-06T18:16:57.688Z,25.40
2023-09-06T18:19:27.014Z,25.36
2023-09-06T18:21:58.050Z,25.25
2023-09-06T18:24:27.146Z,25.23
2023-09-06T18:29:34.674Z,25.02
2023-09-06T18:32:02.968Z,24.97
2023-09-06T18:34:31.859Z,24.86
2023-09-06T18:37:00.015Z,24.84
2023-09-06T18:39:28.585Z,24.74
2023-09-06T18:41:56.756Z,24.66
2023-09-06T18:44:25.062Z,24.57
2023-09-06T18:46:54.954Z,24.50
2023-09-06T18:49:23.480Z,24.40
2023-09-06T18:51:53.772Z,24.40
2023-09-06T18:54:22.123Z,24.29
2023-09-06T18:56:50.571Z,24.06
2023-09-06T18:59:21.612Z,23.84
2023-09-06T19:04:20.210Z,23.71
2023-09-06T19:06:48.369Z,23.54
2023-09-06T19:09:16.881Z,23.32
2023-09-06T19:11:44.906Z,23.07
2023-09-06T19:14:15.004Z,22.79
2023-09-06T19:16:45.279Z,22.74
2023-09-06T19:19:15.258Z,22.71
2023-09-06T19:21:47.440Z,22.68
2023-09-06T19:24:16.057Z,22.74
2023-09-06T19:26:43.991Z,22.83
2023-09-06T19:29:11.928Z,22.86
2023-09-06T19:31:43.370Z,22.79
2023-09-06T19:34:12.678Z,22.75
2023-09-06T19:36:40.736Z,22.63
2023-09-06T19:39:14.617Z,22.61
2023-09-06T19:41:43.521Z,22.51
2023-09-06T19:44:11.718Z,22.34
2023-09-06T19:46:42.165Z,22.20
2023-09-06T19:49:10.184Z,22.01
2023-09-06T19:51:41.251Z,21.89
2023-09-06T19:54:10.827Z,21.81
2023-09-06T19:56:39.195Z,21.72
2023-09-06T19:59:08.327Z,21.52
2023-09-06T20:01:37.292Z,21.41
2023-09-06T20:04:08.586Z,21.35
2023-09-06T20:06:38.281Z,21.20
2023-09-06T20:09:07.049Z,21.02
2023-09-06T20:11:38.265Z,20.98
2023-09-06T20:14:09.675Z,20.94
2023-09-06T20:16:38.793Z,20.90
2023-09-06T20:19:07.417Z,20.88
2023-09-06T20:21:37.016Z,20.87
2023-09-06T20:24:06.619Z,20.85
2023-09-06T20:26:39.310Z,20.73
2023-09-06T20:29:11.639Z,20.61
2023-09-06T20:31:42.352Z,20.67
2023-09-06T20:34:10.786Z,20.81
2023-09-06T20:36:38.908Z,20.70
2023-09-06T20:39:10.138Z,20.69
2023-09-06T20:41:42.762Z,20.75
2023-09-06T20:44:10.877Z,20.71
2023-09-06T20:46:40.089Z,20.59
2023-09-06T20:49:08.644Z,20.46
2023-09-06T20:51:37.039Z,20.34
2023-09-06T20:54:05.564Z,20.31
2023-09-06T20:56:34.608Z,20.39
2023-09-06T20:59:07.344Z,20.46
2023-09-06T21:01:36.490Z,20.45
2023-09-06T21:04:05.642Z,20.29
2023-09-06T21:06:34.366Z,20.07
2023-09-06T21:09:06.052Z,20.02
2023-09-06T21:11:35.025Z,19.89
2023-09-06T21:14:04.979Z,19.82
2023-09-06T21:16:34.132Z,19.77
2023-09-06T21:19:03.076Z,19.71
2023-09-06T21:21:32.119Z,19.77
2023-09-06T21:24:00.370Z,19.74
2023-09-06T21:26:28.863Z,19.69
2023-09-06T21:29:00.238Z,19.67
2023-09-06T21:31:30.710Z,19.63
2023-09-06T21:33:59.053Z,19.48
2023-09-06T21:36:28.203Z,19.43
2023-09-06T21:38:56.846Z,19.37
2023-09-06T21:41:25.234Z,19.31
2023-09-06T21:43:55.138Z,19.24
2023-09-06T21:46:23.478Z,19.29
2023-09-06T21:48:54.672Z,19.25
2023-09-06T21:51:25.614Z,19.26
2023-09-06T21:53:56.511Z,18.98
2023-09-06T21:56:25.233Z,18.84
2023-09-06T21:58:53.673Z,18.72
2023-09-06T22:01:21.989Z,18.61
2023-09-06T22:04:10.276Z,18.51
2023-09-06T22:06:57.418Z,18.55
2023-09-06T22:09:44.122Z,18.58
2023-09-06T22:12:34.846Z,18.62
2023-09-06T22:15:06.064Z,18.54
2023-09-06T22:17:34.907Z,18.50
2023-09-06T22:20:07.038Z,18.50
2023-09-06T22:22:37.236Z,18.50
2023-09-06T22:25:07.683Z,18.50
2023-09-06T22:27:36.552Z,18.52
2023-09-06T22:30:09.201Z,18.49
2023-09-06T22:32:42.910Z,18.47
2023-09-06T22:35:14.319Z,18.40
2023-09-06T22:37:45.795Z,18.36
2023-09-06T22:40:15.892Z,18.32
2023-09-06T22:42:44.932Z,18.27
2023-09-06T22:45:13.632Z,18.28
2023-09-06T22:47:42.207Z,18.27
2023-09-06T22:50:13.538Z,18.30
2023-09-06T22:52:42.569Z,18.32
2023-09-06T22:55:11.742Z,18.31
2023-09-06T22:57:41.507Z,18.28
2023-09-06T23:00:15.083Z,18.27
2023-09-06T23:02:43.684Z,18.37
2023-09-06T23:05:14.385Z,18.30
2023-09-06T23:07:43.163Z,18.31
2023-09-06T23:10:12.634Z,18.34
2023-09-06T23:12:42.122Z,18.36
2023-09-06T23:15:12.578Z,18.42
2023-09-06T23:17:44.839Z,18.40
2023-09-06T23:20:21.159Z,18.50
2023-09-06T23:22:54.155Z,18.55
2023-09-06T23:25:23.200Z,18.48
2023-09-06T23:27:53.971Z,18.46
2023-09-06T23:30:23.733Z,18.43
2023-09-06T23:32:58.493Z,18.38
2023-09-06T23:35:29.090Z,18.43
2023-09-06T23:38:00.262Z,18.40
2023-09-06T23:40:32.083Z,18.40
2023-09-06T23:43:00.899Z,18.35
2023-09-06T23:45:29.222Z,18.42
2023-09-06T23:48:00.468Z,18.18
2023-09-06T23:50:32.617Z,17.84
2023-09-06T23:53:02.398Z,17.76
2023-09-06T23:55:33.871Z,17.70
2023-09-06T23:58:02.493Z,17.53
